Indialantic, Florida
Current Conditions -  °F | °C
As of 8:53 AM on Thursday 29 Jan 2015 (Local Time) from KMLB Reporting Station
Broken Clouds Broken Clouds  
Wind Chill: 52°   Ceiling: 4500
Heat Index: 52°   Visibility: 10mi
Dew Point: 46°   Wind: 6mph
Humidity: 80%   Direction: 300°WNW
Pressure: 30.31"   Gusts: NA
Location:  28.09°N, 80.57°W
Report Text: KMLB 291353Z 30005KT 10SM BKN045 11/08 A3031 RMK AO2 SLP262 T01110078
Loading
Personal Weather Stations






























Interactive Weather Map New forecast layout! Learn more

10-Day Weather Forecast

Advertisements
Track Severe Weather on mobile